Impacts METAR Board
IDs:

KIAH - Houston/Bush Intl, TX, US

Updated at: 0100 UTC 25 Mar 2019
Potential Impact None Slight Moderate High
Time 24/13Z 24/14Z 24/15Z 24/16Z 24/17Z 24/18Z 24/19Z 24/20Z 24/21Z 24/22Z 24/23Z 25/00Z 25/01Z
Temp62 66 70 71 75 75 78 78 80 78 77 75 72
Dewpt62 65 65 66 66 66 66 66 66 66 67 67 67
Altim30.11 30.11 30.13 30.14 30.13 30.11 30.09 30.07 30.05 30.04 30.03 30.03 30.02
VIS4 6 10 10 10 10 10 10 10 10 10 10 10
CIG65 -- 22 23 36 37 38 40 60 60 60 60 --
CoverBKNSCTOVCBKNBKNOVCBKNBKNBKNBKNBKNBKNSCT
FltCatMVFRVFRMVFRMVFRVFRVFRVFRVFRVFRVFRVFRVFRVFR
WXBRBR----------------------
WDir15016019018000170150160150160170160
WSpd7 8 6 5 6 6 9 11 10 11 10 9 9
WGst-- -- -- -- -- -- -- -- -- -- -- -- --
Raw hourly METARs
KIAH 241253Z 15007KT 4SM BR SCT043 BKN065 17/17 A3011 RMK AO2 SLP195 T01670167
KIAH 241353Z 16008KT 6SM BR FEW024 SCT040 SCT060 19/18 A3011 RMK AO2 SLP196 T01890183
KIAH 241453Z 19006KT 10SM FEW012 BKN022 OVC038 21/18 A3013 RMK AO2 SLP202 T02110183 53010
KIAH 241553Z 18005KT 10SM SCT014 BKN023 BKN036 22/19 A3014 RMK AO2 SLP206 T02170189
KIAH 241653Z VRB06KT 10SM FEW017 SCT025 BKN036 24/19 A3013 RMK AO2 SLP201 T02390189
KIAH 241753Z VRB06KT 10SM SCT023 BKN037 OVC055 24/19 A3011 RMK AO2 SLP195 T02390189 10244 20161 58007
KIAH 241853Z 17009KT 10SM SCT026 BKN038 BKN060 26/19 A3009 RMK AO2 SLP188 T02560189
KIAH 241953Z 15011KT 10SM SCT029 BKN040 BKN060 BKN250 26/19 A3007 RMK AO2 SLP181 T02560189
KIAH 242053Z 16010KT 10SM SCT033 BKN060 BKN250 27/19 A3005 RMK AO2 SLP175 T02670189 56020
KIAH 242153Z 15011KT 10SM SCT031 BKN060 BKN250 26/19 A3004 RMK AO2 SLP171 T02560189
KIAH 242253Z 16010KT 10SM SCT026 BKN060 BKN250 25/19 A3003 RMK AO2 SLP169 T02500194
KIAH 242353Z 17009KT 10SM SCT023 BKN060 BKN250 24/19 A3003 RMK AO2 SLP169 T02390194 10272 20239 56006
KIAH 250053Z 16009KT 10SM SCT022 SCT055 SCT250 22/19 A3002 RMK AO2 SLP166 T02220194



Page loaded:  01:58 UTC  |   06:58 PM Pacific  |   07:58 PM Mountain  |   08:58 PM Central  |   09:58 PM Eastern

 

ADVISORIES

FORECASTS

FORECASTS

OBSERVATIONS

USER TOOLS

ABOUT US